createdAt,value
2022-12-04T00:02:36.333Z,29.20
2022-12-04T00:05:40.044Z,28.75
2022-12-04T00:15:24.703Z,29.48
2022-12-04T00:18:17.853Z,27.45
2022-12-04T00:24:25.597Z,29.77
2022-12-04T00:30:34.712Z,29.23
2022-12-04T00:36:42.461Z,30.40
2022-12-04T00:42:51.620Z,30.25
2022-12-04T00:45:55.487Z,30.15
2022-12-04T00:49:01.923Z,30.60
2022-12-04T00:52:05.968Z,30.83
2022-12-04T00:55:10.924Z,30.15
2022-12-04T00:58:16.640Z,29.02
2022-12-04T01:01:22.273Z,30.38
2022-12-04T01:04:26.132Z,30.70
2022-12-04T01:10:33.571Z,30.15
2022-12-04T01:13:39.233Z,30.88
2022-12-04T01:16:43.236Z,30.95
2022-12-04T01:19:47.125Z,30.58
2022-12-04T01:22:50.896Z,29.20
2022-12-04T01:29:00.893Z,29.02
2022-12-04T01:32:05.001Z,29.08
2022-12-04T01:35:09.720Z,29.13
2022-12-04T01:38:13.438Z,31.67
2022-12-04T01:44:25.855Z,28.02
2022-12-04T01:47:29.576Z,29.73
2022-12-04T01:53:39.610Z,31.27
2022-12-04T01:56:49.011Z,33.63
2022-12-04T01:59:58.101Z,28.33
2022-12-04T02:03:02.943Z,27.73
2022-12-04T02:06:07.705Z,30.90
2022-12-04T02:09:11.466Z,29.42
2022-12-04T02:15:31.264Z,27.55
2022-12-04T02:18:40.479Z,28.30
2022-12-04T02:21:47.683Z,27.88
2022-12-04T02:24:58.098Z,28.83
2022-12-04T02:28:10.772Z,29.65
2022-12-04T02:31:20.387Z,28.33
2022-12-04T02:34:28.912Z,28.98
2022-12-04T02:37:35.649Z,29.55
2022-12-04T02:40:47.210Z,29.00
2022-12-04T02:43:54.773Z,28.75
2022-12-04T02:47:02.304Z,29.92
2022-12-04T02:50:10.425Z,29.10
2022-12-04T02:53:17.983Z,28.23
2022-12-04T02:56:26.780Z,30.13
2022-12-04T02:59:37.438Z,27.10
2022-12-04T03:02:46.792Z,29.33
2022-12-04T03:05:57.684Z,30.33
2022-12-04T03:09:07.848Z,29.83
2022-12-04T03:12:17.138Z,28.20
2022-12-04T03:15:29.168Z,28.95
2022-12-04T03:18:35.529Z,29.98
2022-12-04T03:21:43.035Z,28.88
2022-12-04T03:24:52.404Z,29.40
2022-12-04T03:28:01.265Z,31.20
2022-12-04T03:31:10.121Z,27.23
2022-12-04T03:34:17.063Z,29.67
2022-12-04T03:37:25.894Z,28.42
2022-12-04T03:40:36.776Z,28.00
2022-12-04T03:43:48.631Z,30.77
2022-12-04T03:46:59.578Z,29.17
2022-12-04T03:50:06.339Z,29.23
2022-12-04T03:53:18.905Z,28.75
2022-12-04T03:56:26.131Z,29.67
2022-12-04T03:59:33.421Z,30.17
2022-12-04T04:02:44.442Z,27.35
2022-12-04T04:05:52.688Z,30.17
2022-12-04T04:09:00.587Z,29.50
2022-12-04T04:12:09.093Z,29.05
2022-12-04T04:15:30.183Z,28.85
2022-12-04T04:18:49.304Z,28.75
2022-12-04T04:22:08.202Z,29.58
2022-12-04T04:25:14.687Z,27.80
2022-12-04T04:28:34.678Z,29.40
2022-12-04T04:31:43.838Z,30.25
2022-12-04T04:34:58.758Z,29.00
2022-12-04T04:38:10.373Z,28.92
2022-12-04T04:41:19.812Z,30.13
2022-12-04T04:44:29.974Z,30.60
2022-12-04T04:47:37.845Z,31.80
2022-12-04T04:50:44.847Z,29.60
2022-12-04T04:53:52.558Z,30.48
2022-12-04T04:56:56.331Z,29.33
2022-12-04T05:03:04.291Z,28.33
2022-12-04T05:06:10.177Z,29.75
2022-12-04T05:09:13.898Z,30.05
2022-12-04T05:15:21.067Z,30.20
2022-12-04T05:21:28.629Z,30.08
2022-12-04T05:24:32.605Z,28.48
2022-12-04T05:27:36.325Z,28.60
2022-12-04T05:33:43.996Z,29.60
2022-12-04T05:36:49.711Z,29.35
2022-12-04T05:39:54.060Z,29.25
2022-12-04T05:42:59.039Z,29.73
2022-12-04T05:46:02.788Z,30.10
2022-12-04T05:52:12.032Z,31.20
2022-12-04T05:55:15.883Z,30.38
2022-12-04T06:01:25.370Z,22.10
2022-12-04T06:04:29.118Z,28.60
2022-12-04T06:10:38.274Z,27.70
2022-12-04T06:16:47.987Z,26.98
2022-12-04T06:19:52.736Z,28.10
2022-12-04T06:22:58.505Z,25.67
2022-12-04T06:26:07.167Z,28.90
2022-12-04T06:29:12.656Z,27.17
2022-12-04T06:32:21.131Z,28.55
2022-12-04T06:35:25.364Z,27.83
2022-12-04T06:41:34.565Z,26.73
2022-12-04T06:47:41.695Z,25.20
2022-12-04T06:53:51.040Z,27.53
2022-12-04T06:56:54.847Z,24.15
2022-12-04T07:03:02.268Z,24.58
2022-12-04T07:09:22.570Z,27.67
2022-12-04T07:12:26.245Z,23.98
2022-12-04T07:18:34.273Z,23.43
2022-12-04T07:21:38.276Z,24.80
2022-12-04T07:24:43.868Z,24.05
2022-12-04T07:27:48.040Z,25.23
2022-12-04T07:30:51.738Z,24.48
2022-12-04T07:36:59.689Z,22.98
2022-12-04T07:43:09.336Z,20.70
2022-12-04T07:49:17.996Z,19.35
2022-12-04T07:52:21.705Z,17.98
2022-12-04T07:55:27.413Z,17.90
2022-12-04T07:58:31.178Z,16.90
2022-12-04T08:04:39.266Z,17.58
2022-12-04T08:07:43.040Z,17.52
2022-12-04T08:10:48.733Z,15.80
2022-12-04T08:13:56.087Z,15.82
2022-12-04T08:17:00.087Z,15.38
2022-12-04T08:20:04.069Z,14.82
2022-12-04T08:23:07.821Z,14.95
2022-12-04T08:29:17.635Z,13.73
2022-12-04T08:35:24.819Z,14.63
2022-12-04T08:41:34.095Z,13.47
2022-12-04T08:44:37.787Z,11.65
2022-12-04T08:50:46.355Z,12.85
2022-12-04T08:53:53.642Z,11.25
2022-12-04T08:56:59.287Z,12.13
2022-12-04T09:00:03.276Z,14.05
2022-12-04T09:03:07.151Z,12.10
2022-12-04T09:06:12.521Z,13.10
2022-12-04T09:09:16.228Z,10.48
2022-12-04T09:15:25.376Z,11.77
2022-12-04T09:21:32.584Z,11.67
2022-12-04T09:27:43.067Z,13.10
2022-12-04T09:30:47.017Z,12.32
2022-12-04T09:33:51.249Z,12.52
2022-12-04T09:36:55.073Z,11.55
2022-12-04T09:43:09.321Z,9.03
2022-12-04T09:46:18.635Z,12.05
2022-12-04T09:49:27.030Z,12.68
2022-12-04T09:52:47.310Z,12.30
2022-12-04T09:55:57.471Z,12.00
2022-12-04T09:59:08.841Z,12.20
2022-12-04T10:02:26.004Z,11.93
2022-12-04T10:05:42.227Z,12.30
2022-12-04T10:08:48.100Z,12.15
2022-12-04T10:12:03.297Z,12.48
2022-12-04T10:15:21.759Z,12.38
2022-12-04T10:18:37.472Z,13.25
2022-12-04T10:21:53.245Z,13.48
2022-12-04T10:25:00.671Z,13.02
2022-12-04T10:28:11.413Z,14.45
2022-12-04T10:31:17.414Z,14.15
2022-12-04T10:34:25.978Z,14.90
2022-12-04T10:37:30.241Z,15.00
2022-12-04T10:40:37.210Z,14.23
2022-12-04T10:43:45.094Z,15.95
2022-12-04T10:46:54.833Z,15.95
2022-12-04T10:50:01.991Z,16.75
2022-12-04T10:53:10.724Z,14.48
2022-12-04T10:56:19.808Z,17.08
2022-12-04T10:59:23.977Z,17.67
2022-12-04T11:02:32.058Z,18.15
2022-12-04T11:05:40.233Z,18.90
2022-12-04T11:08:50.203Z,21.08
2022-12-04T11:11:54.190Z,18.38
2022-12-04T11:15:14.945Z,19.17
2022-12-04T11:18:22.825Z,19.27
2022-12-04T11:21:30.915Z,19.23
2022-12-04T11:24:37.002Z,19.27
2022-12-04T11:27:40.931Z,19.77
2022-12-04T11:30:49.912Z,20.42
2022-12-04T11:33:58.223Z,19.80
2022-12-04T11:37:02.286Z,22.27
2022-12-04T11:40:16.153Z,19.92
2022-12-04T11:43:20.444Z,20.10
2022-12-04T11:46:26.358Z,20.60
2022-12-04T11:49:34.692Z,20.63
2022-12-04T11:52:58.921Z,18.92
2022-12-04T11:56:22.031Z,19.35
2022-12-04T11:59:50.048Z,19.80
2022-12-04T12:03:15.262Z,19.27
2022-12-04T12:06:32.273Z,17.88
2022-12-04T12:09:47.717Z,19.38
2022-12-04T12:13:02.015Z,19.40
2022-12-04T12:16:13.955Z,20.20
2022-12-04T12:19:51.422Z,19.60
2022-12-04T12:23:19.561Z,21.23
2022-12-04T12:26:28.749Z,21.35
2022-12-04T12:29:45.979Z,23.23
2022-12-04T12:33:01.499Z,20.83
2022-12-04T12:36:09.903Z,23.17
2022-12-04T12:39:22.368Z,20.13
2022-12-04T12:42:30.242Z,20.15
2022-12-04T12:45:42.083Z,21.08
2022-12-04T12:48:58.104Z,20.63
2022-12-04T12:52:07.542Z,21.48
2022-12-04T12:55:20.713Z,21.15
2022-12-04T12:58:31.125Z,21.63
2022-12-04T13:01:44.894Z,20.42
2022-12-04T13:04:52.348Z,22.00
2022-12-04T13:08:05.049Z,21.25
2022-12-04T13:11:14.371Z,21.35
2022-12-04T13:14:18.305Z,20.75
2022-12-04T13:17:32.154Z,21.23
2022-12-04T13:20:45.038Z,20.50
2022-12-04T13:23:58.318Z,20.48
2022-12-04T13:27:11.291Z,20.00
2022-12-04T13:30:20.018Z,18.52
2022-12-04T13:33:50.940Z,20.85
2022-12-04T13:37:09.301Z,20.02
2022-12-04T13:40:33.870Z,19.63
2022-12-04T13:43:47.613Z,17.60
2022-12-04T13:46:55.839Z,17.70
2022-12-04T13:50:26.536Z,17.45
2022-12-04T13:53:36.714Z,17.42
2022-12-04T13:56:41.768Z,15.13
2022-12-04T13:59:48.261Z,17.52
2022-12-04T14:02:55.321Z,16.58
2022-12-04T14:05:59.698Z,17.95
2022-12-04T14:09:05.974Z,17.58
2022-12-04T14:12:13.360Z,18.27
2022-12-04T14:15:25.937Z,19.08
2022-12-04T14:18:31.521Z,17.92
2022-12-04T14:21:41.105Z,19.55
2022-12-04T14:24:44.817Z,18.83
2022-12-04T14:27:51.265Z,18.38
2022-12-04T14:31:15.407Z,18.15
2022-12-04T14:34:26.446Z,17.85
2022-12-04T14:37:35.609Z,18.67
2022-12-04T14:40:45.178Z,19.75
2022-12-04T14:43:51.210Z,18.85
2022-12-04T14:50:24.504Z,18.23
2022-12-04T14:53:37.512Z,19.10
2022-12-04T14:56:54.079Z,20.27
2022-12-04T14:59:59.981Z,20.30
2022-12-04T15:03:05.743Z,20.98
2022-12-04T15:06:17.211Z,22.20
2022-12-04T15:09:39.274Z,22.77
2022-12-04T15:12:47.762Z,23.70
2022-12-04T15:15:52.016Z,23.88
2022-12-04T15:18:59.551Z,23.25
2022-12-04T15:22:08.780Z,23.98
2022-12-04T15:25:21.240Z,23.92
2022-12-04T15:28:30.131Z,22.85
2022-12-04T15:31:38.263Z,22.88
2022-12-04T15:34:46.745Z,22.73
2022-12-04T15:37:50.832Z,21.33
2022-12-04T15:40:56.489Z,24.65
2022-12-04T15:44:01.006Z,20.60
2022-12-04T15:47:16.473Z,25.40
2022-12-04T15:50:26.407Z,24.40
2022-12-04T15:53:32.865Z,23.58
2022-12-04T15:56:36.526Z,22.48
2022-12-04T15:59:40.343Z,22.05
2022-12-04T16:08:55.733Z,22.52
2022-12-04T16:12:01.010Z,22.00
2022-12-04T16:15:06.224Z,24.15
2022-12-04T16:18:14.724Z,24.02
2022-12-04T16:21:23.370Z,22.77
2022-12-04T16:24:27.694Z,22.88
2022-12-04T16:27:31.372Z,22.67
2022-12-04T16:30:36.961Z,24.08
2022-12-04T16:33:41.325Z,23.38
2022-12-04T16:36:47.090Z,21.92
2022-12-04T16:39:51.372Z,22.98
2022-12-04T16:42:55.133Z,21.95
2022-12-04T16:46:02.058Z,21.80
2022-12-04T16:49:07.605Z,21.50
2022-12-04T16:52:14.143Z,22.67
2022-12-04T16:55:21.595Z,22.88
2022-12-04T16:58:25.505Z,23.50
2022-12-04T17:01:37.735Z,22.73
2022-12-04T17:04:41.571Z,20.83
2022-12-04T17:10:51.486Z,20.38
2022-12-04T17:13:55.182Z,22.95
2022-12-04T17:16:58.886Z,22.73
2022-12-04T17:20:02.764Z,21.40
2022-12-04T17:26:13.799Z,22.10
2022-12-04T17:29:17.523Z,23.50
2022-12-04T17:32:21.362Z,23.23
2022-12-04T17:38:30.502Z,24.88
2022-12-04T17:41:34.395Z,22.95
2022-12-04T17:44:38.074Z,24.55
2022-12-04T17:47:41.842Z,22.52
2022-12-04T17:50:47.047Z,26.02
2022-12-04T17:53:53.118Z,25.25
2022-12-04T17:56:58.160Z,25.50
2022-12-04T18:00:02.165Z,25.63
2022-12-04T18:06:21.549Z,24.23
2022-12-04T18:09:27.183Z,23.77
2022-12-04T18:12:31.017Z,24.05
2022-12-04T18:15:36.542Z,23.67
2022-12-04T18:18:40.980Z,22.45
2022-12-04T18:21:44.690Z,22.92
2022-12-04T18:27:53.890Z,23.23
2022-12-04T18:34:01.123Z,24.45
2022-12-04T18:40:12.446Z,22.53
2022-12-04T18:43:16.118Z,22.48
2022-12-04T18:46:21.168Z,22.08
2022-12-04T18:49:24.939Z,24.00
2022-12-04T18:52:28.671Z,22.73
2022-12-04T18:55:36.997Z,23.50
2022-12-04T18:58:40.866Z,23.38
2022-12-04T19:04:48.502Z,22.27
2022-12-04T19:07:53.125Z,22.70
2022-12-04T19:11:06.019Z,21.88
2022-12-04T19:14:19.245Z,23.15
2022-12-04T19:17:26.638Z,23.52
2022-12-04T19:20:30.416Z,22.88
2022-12-04T19:26:39.993Z,21.10
2022-12-04T19:29:45.814Z,22.35
2022-12-04T19:36:00.376Z,19.90
2022-12-04T19:39:06.420Z,21.33
2022-12-04T19:42:12.419Z,22.60
2022-12-04T19:45:16.258Z,23.70
2022-12-04T19:51:23.774Z,20.07
2022-12-04T19:54:29.380Z,21.55
2022-12-04T19:57:35.173Z,22.30
2022-12-04T20:00:38.852Z,20.48
2022-12-04T20:03:43.178Z,20.27
2022-12-04T20:06:48.078Z,21.42
2022-12-04T20:09:52.527Z,19.98
2022-12-04T20:12:58.492Z,20.45
2022-12-04T20:16:03.399Z,20.15
2022-12-04T20:19:09.053Z,20.08
2022-12-04T20:22:12.797Z,20.67
2022-12-04T20:25:16.579Z,22.20
2022-12-04T20:28:22.814Z,19.65
2022-12-04T20:31:29.031Z,20.27
2022-12-04T20:34:32.788Z,19.23
2022-12-04T20:37:37.227Z,20.70
2022-12-04T20:40:40.963Z,19.98
2022-12-04T20:43:48.037Z,21.20
2022-12-04T20:46:52.753Z,20.65
2022-12-04T20:49:56.875Z,19.77
2022-12-04T20:53:00.925Z,20.33
2022-12-04T20:56:04.601Z,21.95
2022-12-04T20:59:13.390Z,20.40
2022-12-04T21:02:17.103Z,21.58
2022-12-04T21:08:37.484Z,20.23
2022-12-04T21:11:43.343Z,21.00
2022-12-04T21:15:02.106Z,20.10
2022-12-04T21:18:08.091Z,20.40
2022-12-04T21:21:11.832Z,20.08
2022-12-04T21:24:17.057Z,21.08
2022-12-04T21:27:21.373Z,19.70
2022-12-04T21:30:27.122Z,21.38
2022-12-04T21:33:31.759Z,22.65
2022-12-04T21:36:35.661Z,21.73
2022-12-04T21:42:43.409Z,23.07
2022-12-04T21:45:58.085Z,23.08
2022-12-04T21:49:01.970Z,22.63
2022-12-04T21:55:09.792Z,24.52
2022-12-04T21:58:13.694Z,24.27
2022-12-04T22:01:22.344Z,22.55
2022-12-04T22:04:26.099Z,23.92
2022-12-04T22:10:33.273Z,24.80
2022-12-04T22:13:37.475Z,24.00
2022-12-04T22:16:43.607Z,21.50
2022-12-04T22:19:47.492Z,21.83
2022-12-04T22:22:51.275Z,22.10
2022-12-04T22:28:59.095Z,21.90
2022-12-04T22:32:05.016Z,21.77
2022-12-04T22:35:09.423Z,21.95
2022-12-04T22:38:13.102Z,22.35
2022-12-04T22:41:18.468Z,23.05
2022-12-04T22:44:22.321Z,21.60
2022-12-04T22:50:31.325Z,22.48
2022-12-04T22:53:38.614Z,23.70
2022-12-04T22:56:43.548Z,23.92
2022-12-04T22:59:47.341Z,23.02
2022-12-04T23:06:02.855Z,22.63
2022-12-04T23:09:08.716Z,21.63
2022-12-04T23:12:12.418Z,22.52
2022-12-04T23:15:16.280Z,25.13
2022-12-04T23:21:26.479Z,22.45
2022-12-04T23:24:30.214Z,24.40
2022-12-04T23:27:34.040Z,22.63
2022-12-04T23:33:43.713Z,17.00
2022-12-04T23:36:47.457Z,22.80
2022-12-04T23:39:51.146Z,24.48
2022-12-04T23:42:55.067Z,23.15
2022-12-04T23:49:04.412Z,22.97
2022-12-04T23:52:08.173Z,22.88
2022-12-04T23:58:15.299Z,21.70
